Time;durP1;ratioP1;P1;durP2;ratioP2;P2;SDS_P1;SDS_P2;PMS_P1;PMS_P2;Temp;Humidity;BMP_temperature;BMP_pressure;BME280_temperature;BME280_humidity;BME280_pressure;Samples;Min_cycle;Max_cycle;Signal;HPM_P1;HPM_P2
2023/05/28 00:00:01;;;;;;;;;;;;;;;21.38;31.08;97599.50;5082165;28;864;-80
2023/05/28 00:02:26;;;;;;;;;;;;;;;21.56;31.04;97600.53;5084252;28;896;-79
2023/05/28 00:04:52;;;;;;;;;;;;;;;21.58;30.51;97602.91;5081386;28;888;-80
2023/05/28 00:07:17;;;;;;;;;;;;;;;21.54;30.78;97603.00;5082461;28;1173;-80
2023/05/28 00:09:43;;;;;;;;;;;;;;;21.68;30.71;97604.59;5082495;28;977;-79
2023/05/28 00:12:08;;;;;;;;;;;;;;;22.14;30.47;97610.75;5081169;28;1118;-80
2023/05/28 00:14:34;;;;;;;;;;;;;;;22.46;30.46;97600.31;5063244;28;1980;-81
2023/05/28 00:17:00;;;;;;;;;;;;;;;22.21;30.64;97610.50;5065157;28;961;-80
2023/05/28 00:19:25;;;;;;;;;;;;;;;21.96;30.81;97602.03;5063529;28;951;-80
2023/05/28 00:21:51;;;;;;;;;;;;;;;21.89;30.93;97593.78;5063736;28;901;-80
2023/05/28 00:24:17;;;;;;;;;;;;;;;21.62;30.82;97597.13;5060216;28;1221;-80
2023/05/28 00:26:42;;;;;;;;;;;;;;;21.78;30.71;97597.78;5004990;28;1044;-80
2023/05/28 00:29:08;;;;;;;;;;;;;;;21.44;31.32;97597.69;4987447;28;1247;-80
2023/05/28 00:31:33;;;;;;;;;;;;;;;21.59;30.87;97598.81;5021798;28;1027;-80
2023/05/28 00:33:59;;;;;;;;;;;;;;;21.88;30.21;97597.88;5020117;28;1118;-81
2023/05/28 00:36:25;;;;;;;;;;;;;;;21.69;30.40;97597.66;5021307;28;1895;-80
2023/05/28 00:38:50;;;;;;;;;;;;;;;21.62;30.75;97597.91;5019632;28;1416;-80
2023/05/28 00:41:20;;;;;;;;;;;;;;;21.44;31.08;97603.34;5021386;28;911;-80
2023/05/28 00:43:46;;;;;;;;;;;;;;;21.51;30.95;97608.81;4988130;28;980;-80
2023/05/28 00:46:11;;;;;;;;;;;;;;;21.34;30.94;97608.09;5001636;28;982;-80
2023/05/28 00:48:38;;;;;;;;;;;;;;;21.53;30.60;97606.28;5000489;28;1118;-80
2023/05/28 00:51:04;;;;;;;;;;;;;;;21.46;30.82;97606.53;5002456;28;1241;-80
2023/05/28 00:53:29;;;;;;;;;;;;;;;21.45;30.68;97602.09;4999898;28;977;-80
2023/05/28 00:55:55;;;;;;;;;;;;;;;22.22;30.33;97599.94;5033073;28;1987;-80
2023/05/28 00:58:21;;;;;;;;;;;;;;;22.65;29.65;97599.19;5071851;28;828;-80
2023/05/28 01:00:47;;;;;;;;;;;;;;;22.44;30.30;97594.31;5067079;28;906;-80
2023/05/28 01:03:12;;;;;;;;;;;;;;;22.00;30.91;97589.31;5085004;28;866;-80
2023/05/28 01:05:38;;;;;;;;;;;;;;;21.69;31.28;97586.34;5069933;28;836;-80
2023/05/28 01:08:05;;;;;;;;;;;;;;;21.60;31.32;97594.72;5085272;28;1142;-80
2023/05/28 01:10:31;;;;;;;;;;;;;;;21.63;31.19;97588.16;5069095;28;1094;-80
2023/05/28 01:12:56;;;;;;;;;;;;;;;21.35;31.68;97577.75;5068981;28;841;-80
2023/05/28 01:15:23;;;;;;;;;;;;;;;21.52;31.46;97576.41;5068403;28;1902;-80
2023/05/28 01:17:52;;;;;;;;;;;;;;;21.29;31.58;97569.81;5052799;28;1257;-79
2023/05/28 01:20:19;;;;;;;;;;;;;;;21.39;31.61;97570.75;5067477;28;1188;-80
2023/05/28 01:22:45;;;;;;;;;;;;;;;21.36;31.44;97585.03;5067659;28;939;-79
2023/05/28 01:25:12;;;;;;;;;;;;;;;21.67;31.47;97577.53;5050788;28;1264;-80
2023/05/28 01:27:41;;;;;;;;;;;;;;;21.91;31.59;97575.06;5051880;28;871;-80
2023/05/28 01:30:11;;;;;;;;;;;;;;;22.16;31.06;97574.22;5066866;28;925;-80
2023/05/28 01:32:38;;;;;;;;;;;;;;;22.11;31.05;97571.97;5034782;28;1135;-80
2023/05/28 01:35:04;;;;;;;;;;;;;;;21.80;31.38;97575.44;5066821;28;1918;-79
2023/05/28 01:37:29;;;;;;;;;;;;;;;21.65;31.17;97568.69;5052429;28;1123;-81
2023/05/28 01:39:55;;;;;;;;;;;;;;;21.88;30.64;97569.56;5050037;28;1178;-80
2023/05/28 01:42:21;;;;;;;;;;;;;;;21.72;31.12;97568.44;5051626;28;1085;-80
2023/05/28 01:44:47;;;;;;;;;;;;;;;21.67;30.79;97569.03;5050403;28;1110;-80
2023/05/28 01:47:13;;;;;;;;;;;;;;;21.71;30.98;97578.19;5051095;28;1263;-80
2023/05/28 01:49:41;;;;;;;;;;;;;;;21.57;30.99;97582.28;5049696;28;994;-80
2023/05/28 01:52:08;;;;;;;;;;;;;;;21.64;30.86;97575.59;5050036;28;1292;-80
2023/05/28 01:54:34;;;;;;;;;;;;;;;21.61;30.89;97587.84;5067348;28;1232;-81
2023/05/28 01:57:01;;;;;;;;;;;;;;;21.97;31.13;97583.81;5068641;28;1905;-79
2023/05/28 01:59:26;;;;;;;;;;;;;;;22.49;30.52;97580.34;5067455;28;1161;-80
2023/05/28 02:01:52;;;;;;;;;;;;;;;22.06;31.07;97575.38;5086329;28;917;-80
2023/05/28 02:04:17;;;;;;;;;;;;;;;21.85;31.17;97577.69;5084966;28;1125;-80
2023/05/28 02:06:44;;;;;;;;;;;;;;;21.75;30.99;97584.50;5068425;28;1043;-80
2023/05/28 02:09:10;;;;;;;;;;;;;;;21.64;31.20;97578.44;5067603;28;1225;-79
2023/05/28 02:11:36;;;;;;;;;;;;;;;21.48;31.35;97581.41;5084092;28;1163;-80
2023/05/28 02:14:03;;;;;;;;;;;;;;;21.67;30.95;97582.41;5066477;28;1142;-80
2023/05/28 02:16:29;;;;;;;;;;;;;;;21.54;31.19;97576.75;5050478;28;1898;-80
2023/05/28 02:18:55;;;;;;;;;;;;;;;21.48;31.49;97582.19;5066240;28;1178;-79
2023/05/28 02:21:21;;;;;;;;;;;;;;;21.57;30.98;97584.34;5067478;28;1176;-80
2023/05/28 02:23:48;;;;;;;;;;;;;;;21.40;31.43;97591.34;5049298;28;1193;-80
2023/05/28 02:26:15;;;;;;;;;;;;;;;21.48;31.12;97590.69;5050887;28;1178;-80
2023/05/28 02:28:44;;;;;;;;;;;;;;;21.40;31.27;97591.34;5048965;28;962;-80
2023/05/28 02:31:10;;;;;;;;;;;;;;;22.03;30.79;97596.13;5051888;28;968;-80
2023/05/28 02:33:36;;;;;;;;;;;;;;;22.38;30.57;97588.41;5065726;28;946;-80
2023/05/28 02:36:02;;;;;;;;;;;;;;;22.45;30.25;97598.72;5068505;28;1898;-80
2023/05/28 02:38:28;;;;;;;;;;;;;;;21.95;31.07;97597.63;5082377;28;962;-80
2023/05/28 02:40:53;;;;;;;;;;;;;;;21.63;31.41;97599.50;5067374;28;784;-79
2023/05/28 02:43:19;;;;;;;;;;;;;;;21.60;31.25;97594.72;5078804;28;972;-79
2023/05/28 02:45:45;;;;;;;;;;;;;;;21.54;31.30;97596.56;5084460;28;1053;-80
2023/05/28 02:48:11;;;;;;;;;;;;;;;21.47;31.21;97585.47;5083180;28;1094;-80
2023/05/28 02:50:37;;;;;;;;;;;;;;;21.53;30.84;97592.16;5067024;28;1169;-80
2023/05/28 02:53:28;;;;;;;;;;;;;;;21.58;31.18;97597.22;5028240;28;975;-79
2023/05/28 02:55:54;;;;;;;;;;;;;;;21.54;31.00;97585.22;5043938;28;1988;-80
2023/05/28 02:58:20;;;;;;;;;;;;;;;21.53;31.19;97594.97;5041920;28;1135;-80
2023/05/28 03:00:46;;;;;;;;;;;;;;;21.52;31.07;97602.69;5042874;28;1698;-80
2023/05/28 03:03:12;;;;;;;;;;;;;;;21.53;31.00;97604.25;5041771;28;1169;-80
2023/05/28 03:05:38;;;;;;;;;;;;;;;21.66;31.20;97612.75;5043465;28;1162;-81
2023/05/28 03:08:03;;;;;;;;;;;;;;;22.27;30.50;97602.19;5021683;28;1282;-80
2023/05/28 03:10:29;;;;;;;;;;;;;;;22.44;30.44;97605.66;5006196;28;903;-79
2023/05/28 03:12:54;;;;;;;;;;;;;;;22.20;30.60;97608.91;5005692;28;989;-81
2023/05/28 03:15:20;;;;;;;;;;;;;;;21.96;30.93;97599.97;5006353;28;1883;-80
2023/05/28 03:17:46;;;;;;;;;;;;;;;21.96;30.70;97604.88;4990173;28;1109;-80
2023/05/28 03:20:11;;;;;;;;;;;;;;;21.85;30.86;97600.34;5022103;28;876;-80
2023/05/28 03:22:37;;;;;;;;;;;;;;;21.69;30.87;97603.34;4989587;28;1163;-81
2023/05/28 03:25:03;;;;;;;;;;;;;;;21.57;31.04;97606.97;5021654;28;1221;-81
2023/05/28 03:27:29;;;;;;;;;;;;;;;21.48;31.16;97609.69;5006641;28;1305;-81
2023/05/28 03:29:56;;;;;;;;;;;;;;;21.63;30.90;97612.88;4999084;28;1217;-81
2023/05/28 03:32:40;;;;;;;;;;;;;;;21.61;31.07;97607.66;4989732;28;1130;-81
2023/05/28 03:35:06;;;;;;;;;;;;;;;21.79;30.55;97613.50;4986167;28;1903;-80
2023/05/28 03:37:32;;;;;;;;;;;;;;;22.53;30.13;97614.22;4971294;28;1086;-81
2023/05/28 03:39:58;;;;;;;;;;;;;;;22.20;31.05;97613.78;5003377;28;1075;-81
2023/05/28 03:42:23;;;;;;;;;;;;;;;22.50;30.32;97620.81;5027961;28;1153;-81
2023/05/28 03:44:49;;;;;;;;;;;;;;;22.18;30.84;97617.09;5008867;28;1477;-80
2023/05/28 03:47:15;;;;;;;;;;;;;;;21.94;31.00;97613.81;5026575;28;891;-81
2023/05/28 03:49:41;;;;;;;;;;;;;;;21.59;31.24;97608.09;5025672;28;1240;-81
2023/05/28 03:52:07;;;;;;;;;;;;;;;21.61;31.30;97616.16;5009970;28;1207;-80
2023/05/28 03:54:42;;;;;;;;;;;;;;;21.62;31.36;97606.41;5010561;28;1902;-81
2023/05/28 03:57:08;;;;;;;;;;;;;;;21.63;31.12;97616.47;5026157;28;1197;-80
2023/05/28 03:59:34;;;;;;;;;;;;;;;21.59;31.22;97607.31;5025392;28;1165;-81
2023/05/28 04:02:01;;;;;;;;;;;;;;;21.41;31.44;97604.28;5082417;28;1299;-81
2023/05/28 04:04:27;;;;;;;;;;;;;;;21.54;31.32;97613.53;5083051;28;970;-81
2023/05/28 04:06:52;;;;;;;;;;;;;;;21.56;31.24;97614.69;5084114;28;930;-80
2023/05/28 04:09:18;;;;;;;;;;;;;;;21.37;31.53;97621.38;5083000;28;1153;-81
2023/05/28 04:11:43;;;;;;;;;;;;;;;21.49;31.30;97626.22;5066486;28;1291;-81
2023/05/28 04:14:12;;;;;;;;;;;;;;;21.57;30.67;97629.63;5066362;28;1134;-81
2023/05/28 04:16:38;;;;;;;;;;;;;;;21.53;30.86;97631.78;5083346;28;1882;-81
2023/05/28 04:19:03;;;;;;;;;;;;;;;21.50;30.88;97630.66;5082548;28;1299;-79
2023/05/28 04:21:29;;;;;;;;;;;;;;;21.58;30.89;97637.66;5084788;28;861;-79
2023/05/28 04:23:55;;;;;;;;;;;;;;;21.60;30.73;97631.53;5065740;28;1122;-79
2023/05/28 04:26:22;;;;;;;;;;;;;;;21.28;31.11;97636.16;5083987;28;822;-79
2023/05/28 04:28:48;;;;;;;;;;;;;;;21.43;30.87;97635.75;5081553;28;1282;-79
2023/05/28 04:31:13;;;;;;;;;;;;;;;21.37;30.89;97637.56;5066678;28;926;-79
2023/05/28 04:33:39;;;;;;;;;;;;;;;22.18;30.37;97642.59;5064638;28;1106;-79
2023/05/28 04:36:08;;;;;;;;;;;;;;;22.66;29.58;97646.16;5083390;28;1926;-79
2023/05/28 04:38:34;;;;;;;;;;;;;;;22.44;30.38;97651.00;5048818;28;1246;-79
2023/05/28 04:41:05;;;;;;;;;;;;;;;22.35;30.38;97655.34;5076220;28;1338;-79
2023/05/28 04:43:33;;;;;;;;;;;;;;;21.80;31.23;97660.41;5065973;28;1287;-80
2023/05/28 04:46:00;;;;;;;;;;;;;;;21.75;30.92;97658.13;5065561;28;1498;-80
2023/05/28 04:48:26;;;;;;;;;;;;;;;21.71;30.76;97656.66;5064775;28;1288;-80
2023/05/28 04:50:52;;;;;;;;;;;;;;;21.53;30.96;97657.25;5083682;28;1525;-79
2023/05/28 04:53:17;;;;;;;;;;;;;;;21.29;31.49;97663.19;5082418;28;1396;-80
2023/05/28 04:55:44;;;;;;;;;;;;;;;21.39;31.27;97663.34;5083173;28;1910;-79
2023/05/28 04:58:10;;;;;;;;;;;;;;;21.40;31.16;97676.25;5053337;28;1543;-80
2023/05/28 05:00:36;;;;;;;;;;;;;;;21.63;30.62;97670.28;5062570;28;1094;-80
2023/05/28 05:03:02;;;;;;;;;;;;;;;22.03;30.80;97673.41;5063631;28;1464;-79
2023/05/28 05:05:28;;;;;;;;;;;;;;;22.22;30.63;97674.41;5065060;28;1591;-80
2023/05/28 05:07:53;;;;;;;;;;;;;;;21.96;30.67;97676.47;5081495;28;999;-80
2023/05/28 05:10:19;;;;;;;;;;;;;;;22.00;30.46;97673.53;5048247;28;1260;-79
2023/05/28 05:12:47;;;;;;;;;;;;;;;21.58;31.22;97674.47;5060790;28;1089;-80
2023/05/28 05:15:13;;;;;;;;;;;;;;;21.51;31.05;97662.59;5043722;28;1972;-80
2023/05/28 05:17:39;;;;;;;;;;;;;;;21.66;30.58;97657.25;5044951;28;1340;-79
2023/05/28 05:20:06;;;;;;;;;;;;;;;21.58;30.70;97665.19;5043844;28;1633;-80
2023/05/28 05:22:33;;;;;;;;;;;;;;;21.51;30.63;97660.53;5015435;28;1371;-80
2023/05/28 05:24:59;;;;;;;;;;;;;;;21.62;30.30;97659.41;4996286;28;1539;-79
2023/05/28 05:27:24;;;;;;;;;;;;;;;21.42;30.74;97668.13;5006006;28;1561;-80
2023/05/28 05:29:52;;;;;;;;;;;;;;;21.79;30.87;97650.31;4983862;28;1337;-80
2023/05/28 05:32:18;;;;;;;;;;;;;;;22.20;30.19;97659.91;4986358;28;1214;-80
2023/05/28 05:34:43;;;;;;;;;;;;;;;22.43;29.79;97660.75;4968798;28;1506;-80
2023/05/28 05:37:24;;;;;;;;;;;;;;;21.79;30.93;97664.50;4982302;28;962;-80
2023/05/28 05:40:19;;;;;;;;;;;;;;;21.57;31.06;97670.06;4966339;28;1074;-79
2023/05/28 05:43:02;;;;;;;;;;;;;;;21.37;31.04;97657.38;4999548;28;1257;-80
2023/05/28 05:45:28;;;;;;;;;;;;;;;21.66;30.74;97655.22;5024786;28;1150;-80
2023/05/28 05:47:55;;;;;;;;;;;;;;;21.42;31.06;97668.13;5027055;28;1345;-80
2023/05/28 05:50:20;;;;;;;;;;;;;;;21.43;31.05;97658.38;5012186;28;1174;-79
2023/05/28 05:52:46;;;;;;;;;;;;;;;21.36;31.13;97659.41;5028360;28;1307;-81
2023/05/28 05:55:12;;;;;;;;;;;;;;;21.32;31.14;97664.38;5027881;28;1875;-80
2023/05/28 05:57:38;;;;;;;;;;;;;;;21.42;30.92;97668.13;5012623;28;1071;-80
2023/05/28 06:00:05;;;;;;;;;;;;;;;21.44;30.75;97672.06;5021937;28;1157;-79
2023/05/28 06:02:39;;;;;;;;;;;;;;;21.45;30.70;97681.34;5039277;28;1550;-79
2023/05/28 06:05:10;;;;;;;;;;;;;;;21.20;30.82;97691.38;5064682;28;1437;-80
2023/05/28 06:07:56;;;;;;;;;;;;;;;21.99;30.22;97688.94;5080896;28;1517;-80
2023/05/28 06:10:52;;;;;;;;;;;;;;;22.46;29.72;97683.31;5066338;28;1432;-79
2023/05/28 06:13:18;;;;;;;;;;;;;;;22.05;30.11;97682.25;5047607;28;1553;-80
2023/05/28 06:15:44;;;;;;;;;;;;;;;21.66;30.83;97683.53;5084814;28;1953;-79
2023/05/28 06:18:10;;;;;;;;;;;;;;;21.59;30.71;97698.69;5064121;28;1281;-80
2023/05/28 06:20:36;;;;;;;;;;;;;;;21.53;30.50;97685.56;5065475;28;1130;-80
2023/05/28 06:23:01;;;;;;;;;;;;;;;21.41;30.99;97683.53;5063576;28;1143;-80
2023/05/28 06:25:28;;;;;;;;;;;;;;;21.68;30.10;97686.69;5065346;28;1299;-80
2023/05/28 06:27:53;;;;;;;;;;;;;;;21.42;30.72;97685.09;5064908;28;969;-80
2023/05/28 06:30:19;;;;;;;;;;;;;;;21.33;30.98;97683.72;5064860;28;1242;-80
2023/05/28 06:32:45;;;;;;;;;;;;;;;21.88;30.63;97682.84;5064115;28;1151;-79
2023/05/28 06:35:10;;;;;;;;;;;;;;;22.20;30.16;97690.31;5064483;28;1971;-79
2023/05/28 06:37:36;;;;;;;;;;;;;;;21.79;30.52;97689.97;5065158;28;1319;-80
2023/05/28 06:40:05;;;;;;;;;;;;;;;21.52;30.67;97683.97;5063566;28;1159;-80
2023/05/28 06:42:32;;;;;;;;;;;;;;;21.40;31.03;97690.41;5065544;28;1063;-81
2023/05/28 06:45:07;;;;;;;;;;;;;;;21.47;30.54;97695.88;5064563;28;1131;-79
2023/05/28 06:47:33;;;;;;;;;;;;;;;21.27;30.91;97687.53;5082041;28;1157;-79
2023/05/28 06:49:59;;;;;;;;;;;;;;;21.39;30.62;97697.31;5081525;28;902;-80
2023/05/28 06:52:24;;;;;;;;;;;;;;;21.60;30.26;97691.00;5065216;28;1195;-80
2023/05/28 06:54:50;;;;;;;;;;;;;;;21.24;31.04;97689.25;5064129;28;1962;-80
2023/05/28 06:57:16;;;;;;;;;;;;;;;21.43;30.53;97692.34;5065491;28;1231;-80
2023/05/28 07:00:14;;;;;;;;;;;;;;;21.85;30.36;97695.84;5061849;28;1092;-80
2023/05/28 07:02:52;;;;;;;;;;;;;;;22.07;30.16;97690.28;5064618;28;1047;-80
2023/05/28 07:05:44;;;;;;;;;;;;;;;22.33;29.45;97686.19;5011083;28;944;-79
2023/05/28 07:08:09;;;;;;;;;;;;;;;21.79;30.26;97692.81;5022534;28;1363;-80
2023/05/28 07:10:35;;;;;;;;;;;;;;;21.69;30.38;97691.13;5023688;28;1189;-80
2023/05/28 07:13:01;;;;;;;;;;;;;;;21.77;30.34;97683.19;5023463;28;1307;-80
2023/05/28 07:15:27;;;;;;;;;;;;;;;21.70;30.10;97695.53;5023569;28;1914;-80
2023/05/28 07:17:52;;;;;;;;;;;;;;;21.68;30.10;97686.69;5022693;28;1418;-80
2023/05/28 07:20:18;;;;;;;;;;;;;;;21.30;31.02;97695.97;5023019;28;1134;-80
2023/05/28 07:22:48;;;;;;;;;;;;;;;21.36;30.82;97676.38;5042879;28;1163;-80
2023/05/28 07:25:14;;;;;;;;;;;;;;;21.33;31.01;97683.72;5010384;28;1187;-80
2023/05/28 07:27:40;;;;;;;;;;;;;;;21.56;30.36;97684.66;5026813;28;1231;-80
2023/05/28 07:30:06;;;;;;;;;;;;;;;21.29;30.96;97683.00;5025907;28;1270;-80
2023/05/28 07:32:32;;;;;;;;;;;;;;;21.41;30.85;97683.53;4968239;28;1251;-80
2023/05/28 07:34:58;;;;;;;;;;;;;;;21.33;30.60;97686.56;4934917;28;1895;-80
2023/05/28 07:37:23;;;;;;;;;;;;;;;21.74;30.79;97678.44;4952700;28;1579;-80
2023/05/28 07:39:49;;;;;;;;;;;;;;;22.15;30.08;97683.16;4983433;28;1176;-80
2023/05/28 07:42:14;;;;;;;;;;;;;;;22.15;30.38;97680.34;4975487;28;1115;-80
2023/05/28 07:44:42;;;;;;;;;;;;;;;21.92;30.31;97683.53;5020099;28;1566;-80
2023/05/28 07:47:08;;;;;;;;;;;;;;;21.79;30.62;97681.47;5015179;28;1241;-80
2023/05/28 07:49:52;;;;;;;;;;;;;;;21.59;30.92;97678.09;5017670;28;1496;-80
2023/05/28 07:52:21;;;;;;;;;;;;;;;21.36;31.27;97681.25;5022161;28;1506;-80
2023/05/28 07:54:46;;;;;;;;;;;;;;;21.37;31.04;97689.28;5010830;28;1585;-80
2023/05/28 07:57:14;;;;;;;;;;;;;;;21.51;30.80;97690.91;5002807;28;1981;-80
2023/05/28 07:59:41;;;;;;;;;;;;;;;21.34;30.92;97695.84;5025233;28;1350;-80
2023/05/28 08:02:08;;;;;;;;;;;;;;;20.14;30.46;97464.28;5026236;28;1254;-80
2023/05/28 08:04:34;;;;;;;;;;;;;;;21.57;30.50;97681.38;5029408;28;1536;-80
2023/05/28 08:07:00;;;;;;;;;;;;;;;21.56;30.51;97690.34;5036282;28;1415;-80
2023/05/28 08:09:28;;;;;;;;;;;;;;;22.05;30.22;97687.91;5024042;28;1331;-80
2023/05/28 08:11:56;;;;;;;;;;;;;;;22.43;29.52;97677.75;5082866;28;1158;-80
2023/05/28 08:14:25;;;;;;;;;;;;;;;22.06;30.05;97677.38;5065790;28;1173;-80
2023/05/28 08:16:53;;;;;;;;;;;;;;;21.51;30.98;97679.56;5068036;28;1977;-80
2023/05/28 08:19:36;;;;;;;;;;;;;;;21.72;30.49;97684.56;5082127;28;1192;-80
2023/05/28 08:22:04;;;;;;;;;;;;;;;21.58;30.43;97682.97;5067328;28;1205;-80
2023/05/28 08:24:30;;;;;;;;;;;;;;;21.46;30.68;97685.78;5081733;28;1275;-81
2023/05/28 08:26:57;;;;;;;;;;;;;;;21.54;30.67;97681.47;5044764;28;1155;-80
2023/05/28 08:29:24;;;;;;;;;;;;;;;21.54;30.51;97687.16;5059912;28;1178;-80
2023/05/28 08:31:58;;;;;;;;;;;;;;;21.98;30.31;97690.19;5044984;28;1296;-80
2023/05/28 08:34:28;;;;;;;;;;;;;;;22.42;29.57;97687.50;5059999;28;1292;-81
2023/05/28 08:36:54;;;;;;;;;;;;;;;22.19;29.81;97686.69;5060828;28;1926;-80
2023/05/28 08:39:27;;;;;;;;;;;;;;;21.65;30.82;97681.94;5059779;28;1591;-80
2023/05/28 08:41:53;;;;;;;;;;;;;;;21.64;30.63;97685.22;5043895;28;1327;-80
2023/05/28 08:44:19;;;;;;;;;;;;;;;21.62;30.46;97682.84;5042828;28;1239;-81
2023/05/28 08:46:45;;;;;;;;;;;;;;;21.49;30.69;97691.31;5043881;28;1133;-80
2023/05/28 08:49:32;;;;;;;;;;;;;;;21.43;30.90;97684.66;5045059;28;974;-80
2023/05/28 08:52:02;;;;;;;;;;;;;;;21.34;30.90;97695.84;5011607;28;1302;-81
2023/05/28 08:54:29;;;;;;;;;;;;;;;21.42;30.67;97697.22;5011434;28;1116;-81
2023/05/28 08:56:56;;;;;;;;;;;;;;;21.43;30.85;97698.00;5046728;28;1989;-81
2023/05/28 08:59:22;;;;;;;;;;;;;;;21.42;30.53;97696.44;5062408;28;1484;-80
2023/05/28 09:01:48;;;;;;;;;;;;;;;21.52;30.73;97700.97;5064624;28;907;-81
2023/05/28 09:04:19;;;;;;;;;;;;;;;21.27;30.67;97702.47;5046701;28;1158;-80
2023/05/28 09:06:45;;;;;;;;;;;;;;;21.84;30.39;97699.94;5048354;28;1251;-80
2023/05/28 09:09:18;;;;;;;;;;;;;;;22.44;29.41;97696.38;5047722;28;1240;-81
2023/05/28 09:11:47;;;;;;;;;;;;;;;22.39;29.66;97699.78;5048451;28;1130;-81
2023/05/28 09:14:13;;;;;;;;;;;;;;;22.02;30.24;97710.69;5031171;28;1088;-81
2023/05/28 09:16:39;;;;;;;;;;;;;;;21.77;30.66;97695.31;5044692;28;1987;-80
2023/05/28 09:19:07;;;;;;;;;;;;;;;21.59;30.79;97697.91;5027352;28;1257;-80
2023/05/28 09:21:33;;;;;;;;;;;;;;;21.57;30.63;97697.56;5045292;28;952;-80
2023/05/28 09:24:01;;;;;;;;;;;;;;;21.61;30.60;97697.47;5030696;28;1238;-80
2023/05/28 09:26:55;;;;;;;;;;;;;;;21.44;30.69;97706.03;4985643;28;1021;-80
2023/05/28 09:29:27;;;;;;;;;;;;;;;21.60;30.49;97699.47;4982418;28;1112;-81
2023/05/28 09:31:59;;;;;;;;;;;;;;;21.46;30.85;97709.22;4966980;29;936;-81
2023/05/28 09:34:28;;;;;;;;;;;;;;;21.53;30.85;97699.72;4965303;29;1532;-80
2023/05/28 09:36:58;;;;;;;;;;;;;;;21.43;31.10;97698.81;4965387;29;1914;-80
2023/05/28 09:39:25;;;;;;;;;;;;;;;21.41;30.97;97706.16;4964979;29;1306;-80
2023/05/28 09:41:57;;;;;;;;;;;;;;;21.47;30.94;97707.19;4967017;29;1027;-81
2023/05/28 09:44:23;;;;;;;;;;;;;;;22.27;30.17;97705.00;4965648;29;921;-80
2023/05/28 09:46:48;;;;;;;;;;;;;;;22.31;30.34;97708.53;4969378;28;1454;-80
2023/05/28 09:49:14;;;;;;;;;;;;;;;22.30;30.13;97691.97;4984240;28;974;-80
2023/05/28 09:51:39;;;;;;;;;;;;;;;22.00;30.58;97691.31;4984734;28;1262;-80
2023/05/28 09:54:08;;;;;;;;;;;;;;;21.47;31.48;97693.81;4984676;28;959;-80
2023/05/28 09:56:33;;;;;;;;;;;;;;;21.65;31.27;97686.81;4985137;28;1978;-80
2023/05/28 09:59:02;;;;;;;;;;;;;;;21.68;30.93;97691.56;4983551;28;1266;-80
2023/05/28 10:01:32;;;;;;;;;;;;;;;21.66;30.64;97699.72;4985007;28;1092;-81
2023/05/28 10:04:02;;;;;;;;;;;;;;;21.49;31.15;97687.72;5046406;28;1187;-80
2023/05/28 10:06:28;;;;;;;;;;;;;;;21.76;30.55;97693.72;5048663;28;1315;-81
2023/05/28 10:08:53;;;;;;;;;;;;;;;21.35;31.50;97688.97;5063805;28;809;-79
2023/05/28 10:11:21;;;;;;;;;;;;;;;21.27;31.45;97691.16;5048811;28;1213;-80
2023/05/28 10:13:47;;;;;;;;;;;;;;;21.42;30.95;97697.22;5025399;28;1221;-80
2023/05/28 10:16:12;;;;;;;;;;;;;;;21.36;31.18;97696.19;5023404;28;1975;-80
2023/05/28 10:18:38;;;;;;;;;;;;;;;21.79;30.29;97678.66;5038962;28;914;-81
2023/05/28 10:21:05;;;;;;;;;;;;;;;21.78;30.35;97679.91;5040971;28;911;-81
2023/05/28 10:23:31;;;;;;;;;;;;;;;21.50;30.67;97677.97;5037937;28;964;-81
2023/05/28 10:25:56;;;;;;;;;;;;;;;21.44;30.80;97666.41;5023735;28;879;-80
2023/05/28 10:28:22;;;;;;;;;;;;;;;21.43;30.96;97681.81;5038447;28;1029;-80
2023/05/28 10:30:59;;;;;;;;;;;;;;;21.30;31.06;97690.31;5040535;28;974;-80
2023/05/28 10:33:24;;;;;;;;;;;;;;;21.53;30.90;97685.56;5037665;28;963;-81
2023/05/28 10:35:54;;;;;;;;;;;;;;;21.83;30.05;97673.66;5024306;28;1965;-80
2023/05/28 10:38:19;;;;;;;;;;;;;;;21.65;30.28;97673.44;5038226;28;937;-80
2023/05/28 10:40:45;;;;;;;;;;;;;;;21.58;30.58;97671.63;5040307;28;933;-80
2023/05/28 10:43:29;;;;;;;;;;;;;;;22.15;30.59;97674.66;5038326;28;1058;-81
2023/05/28 10:45:55;;;;;;;;;;;;;;;22.16;30.65;97676.25;5064994;28;871;-81
2023/05/28 10:48:20;;;;;;;;;;;;;;;22.23;30.55;97663.91;5079045;28;1242;-80
2023/05/28 10:50:56;;;;;;;;;;;;;;;21.78;31.10;97662.13;5081109;28;864;-80
2023/05/28 10:53:21;;;;;;;;;;;;;;;21.67;30.86;97667.34;5061894;28;1187;-81
2023/05/28 10:55:48;;;;;;;;;;;;;;;21.71;30.77;97662.34;5081342;28;1976;-81
2023/05/28 10:58:19;;;;;;;;;;;;;;;21.72;30.63;97664.72;5041385;28;989;-80
2023/05/28 11:00:45;;;;;;;;;;;;;;;21.54;30.86;97664.50;5040508;28;1280;-81
2023/05/28 11:03:11;;;;;;;;;;;;;;;21.63;30.50;97653.28;5042101;28;910;-81
2023/05/28 11:05:37;;;;;;;;;;;;;;;21.51;30.77;97659.75;5026672;28;1290;-81
2023/05/28 11:08:02;;;;;;;;;;;;;;;21.59;30.63;97652.59;5041798;28;879;-80
2023/05/28 11:10:28;;;;;;;;;;;;;;;21.35;30.99;97654.19;5026036;28;909;-80
2023/05/28 11:12:53;;;;;;;;;;;;;;;21.59;30.37;97650.56;5025892;28;943;-80
2023/05/28 11:15:20;;;;;;;;;;;;;;;21.69;30.36;97647.84;5026129;28;1976;-80
2023/05/28 11:17:46;;;;;;;;;;;;;;;21.67;30.46;97644.69;5025598;28;1167;-80
2023/05/28 11:20:17;;;;;;;;;;;;;;;21.53;30.69;97651.59;5041526;28;941;-81
2023/05/28 11:22:43;;;;;;;;;;;;;;;21.68;30.15;97647.06;5025715;28;1182;-81
2023/05/28 11:25:09;;;;;;;;;;;;;;;22.11;30.24;97651.31;5024385;28;1050;-80
2023/05/28 11:27:36;;;;;;;;;;;;;;;22.43;30.00;97649.41;5025496;28;1273;-80
2023/05/28 11:30:12;;;;;;;;;;;;;;;22.71;29.53;97648.41;5042274;28;1196;-80
2023/05/28 11:32:37;;;;;;;;;;;;;;;21.94;30.66;97647.03;5079415;28;876;-81
2023/05/28 11:35:04;;;;;;;;;;;;;;;21.50;31.28;97641.16;5076505;28;1966;-80
2023/05/28 11:37:33;;;;;;;;;;;;;;;21.54;31.05;97639.03;5066141;28;1186;-80
2023/05/28 11:39:59;;;;;;;;;;;;;;;21.62;30.65;97643.22;5083456;28;893;-80
2023/05/28 11:42:26;;;;;;;;;;;;;;;21.66;30.37;97638.25;5065447;28;1245;-80
2023/05/28 11:44:52;;;;;;;;;;;;;;;21.54;30.58;97631.31;5081405;28;945;-80
2023/05/28 11:47:17;;;;;;;;;;;;;;;21.57;30.62;97635.28;5066314;28;850;-79
2023/05/28 11:49:43;;;;;;;;;;;;;;;21.58;30.70;97632.00;5081373;28;950;-81
2023/05/28 11:52:15;;;;;;;;;;;;;;;21.61;30.35;97633.16;5083958;28;1039;-80
2023/05/28 11:54:41;;;;;;;;;;;;;;;21.26;31.18;97627.34;5080813;28;839;-80
2023/05/28 11:57:07;;;;;;;;;;;;;;;21.36;31.08;97633.16;5080688;28;1886;-81
2023/05/28 11:59:34;;;;;;;;;;;;;;;21.75;31.23;97629.81;5080176;28;969;-80
2023/05/28 12:02:12;;;;;;;;;;;;;;;22.05;30.82;97619.13;5081882;28;949;-81
2023/05/28 12:04:38;;;;;;;;;;;;;;;21.96;30.46;97621.84;5063085;28;941;-81
2023/05/28 12:07:04;;;;;;;;;;;;;;;21.77;30.69;97635.84;5060563;28;915;-80
2023/05/28 12:09:29;;;;;;;;;;;;;;;22.00;29.98;97639.53;5043401;28;896;-81
2023/05/28 12:12:23;;;;;;;;;;;;;;;21.81;30.37;97633.69;5044380;28;1105;-80
2023/05/28 12:14:48;;;;;;;;;;;;;;;21.62;30.56;97631.88;4948391;28;1196;-78
2023/05/28 12:17:15;;;;;;;;;;;;;;;21.42;30.79;97614.34;4982330;28;1906;-78
2023/05/28 12:19:40;;;;;;;;;;;;;;;21.30;31.24;97616.72;4964257;28;1151;-78
2023/05/28 12:22:18;;;;;;;;;;;;;;;21.56;30.78;97622.38;4981909;28;931;-78
2023/05/28 12:24:51;;;;;;;;;;;;;;;21.57;30.83;97623.97;4980257;28;876;-78
2023/05/28 12:27:17;;;;;;;;;;;;;;;21.56;30.56;97617.53;4924471;29;1161;-78
2023/05/28 12:29:42;;;;;;;;;;;;;;;21.65;30.27;97619.63;4907721;29;1005;-78
2023/05/28 12:32:08;;;;;;;;;;;;;;;21.32;31.15;97608.56;4924693;29;1078;-79
2023/05/28 12:34:33;;;;;;;;;;;;;;;21.19;31.21;97609.78;4907477;29;1317;-79
2023/05/28 12:36:59;;;;;;;;;;;;;;;21.45;30.60;97600.09;4926324;29;1984;-79
2023/05/28 12:39:24;;;;;;;;;;;;;;;21.55;30.23;97592.47;4960486;29;1343;-79
2023/05/28 12:41:50;;;;;;;;;;;;;;;21.38;30.82;97599.50;4972803;28;1540;-79
2023/05/28 12:44:16;;;;;;;;;;;;;;;21.54;30.62;97597.34;4964374;28;1568;-79
2023/05/28 12:46:41;;;;;;;;;;;;;;;21.42;30.81;97588.88;4965450;28;1321;-79
2023/05/28 12:49:07;;;;;;;;;;;;;;;21.38;30.85;97591.81;4981232;28;983;-78
2023/05/28 12:51:32;;;;;;;;;;;;;;;21.56;30.28;97588.41;4994694;28;1065;-79
2023/05/28 12:53:59;;;;;;;;;;;;;;;21.55;30.36;97603.78;5023040;28;1012;-79
2023/05/28 12:56:25;;;;;;;;;;;;;;;21.89;29.99;97588.91;5007389;28;1985;-79
2023/05/28 12:58:51;;;;;;;;;;;;;;;22.33;29.99;97589.81;5071011;28;963;-79
2023/05/28 13:01:17;;;;;;;;;;;;;;;22.07;30.48;97577.75;5065355;28;893;-79